createdAt,value
2023-05-12T07:03:00.128Z,100443.94
2023-05-12T07:06:02.825Z,100448.16
2023-05-12T07:09:05.507Z,100448.41
2023-05-12T07:12:08.355Z,100449.00
2023-05-12T07:15:11.373Z,100454.97
2023-05-12T07:18:15.495Z,100455.44
2023-05-12T07:21:18.279Z,100454.75
2023-05-12T07:24:21.110Z,100454.81
2023-05-12T07:27:23.587Z,100451.91
2023-05-12T07:30:26.355Z,100445.25
2023-05-12T07:33:30.355Z,100443.25
2023-05-12T07:36:33.047Z,100445.25
2023-05-12T07:39:35.620Z,100445.72
2023-05-12T07:42:38.633Z,100445.91
2023-05-12T07:45:41.220Z,100446.25
2023-05-12T07:48:45.330Z,100445.94
2023-05-12T07:51:47.731Z,100459.12
2023-05-12T07:54:50.372Z,100454.94
2023-05-12T07:57:52.775Z,100455.22
2023-05-12T08:00:57.035Z,100452.91
2023-05-12T08:04:01.388Z,100453.25
2023-05-12T08:07:04.353Z,100462.91
2023-05-12T08:10:07.602Z,100460.75
2023-05-12T08:13:10.124Z,100459.59
2023-05-12T08:16:12.824Z,100459.28
2023-05-12T08:19:16.724Z,100459.94
2023-05-12T08:22:19.449Z,100462.88
2023-05-12T08:25:22.268Z,100471.50
2023-05-12T08:28:25.124Z,100472.81
2023-05-12T08:31:27.624Z,100469.34
2023-05-12T08:34:31.706Z,100475.81
2023-05-12T08:37:34.854Z,100474.00
2023-05-12T08:40:42.303Z,100471.53
2023-05-12T08:43:45.451Z,100471.63
2023-05-12T08:46:48.305Z,100481.84
2023-05-12T08:49:58.478Z,100489.28
2023-05-12T08:53:01.334Z,100484.16
2023-05-12T08:59:11.385Z,100504.09
2023-05-12T09:02:13.930Z,100506.31
2023-05-12T09:05:18.562Z,100499.28
2023-05-12T09:08:21.290Z,100505.72
2023-05-12T09:11:24.096Z,100509.56
2023-05-12T09:14:26.554Z,100499.66
2023-05-12T09:17:29.224Z,100509.88
2023-05-12T09:20:33.224Z,100508.84
2023-05-12T09:23:36.078Z,100510.38
2023-05-12T09:26:45.497Z,100514.84
2023-05-12T09:29:58.663Z,100515.16
2023-05-12T09:33:06.472Z,100508.53
2023-05-12T09:36:10.583Z,100526.34
2023-05-12T09:39:13.277Z,100520.38
2023-05-12T09:42:15.919Z,100519.50
2023-05-12T09:45:19.036Z,100521.38
2023-05-12T09:48:22.224Z,100530.50
2023-05-12T09:51:26.089Z,100522.31
2023-05-12T09:54:29.452Z,100519.97
2023-05-12T09:57:31.967Z,100519.59
2023-05-12T10:00:51.956Z,100525.22
2023-05-12T10:03:58.096Z,100517.66
2023-05-12T10:07:01.853Z,100515.34
2023-05-12T10:10:05.490Z,100515.25
2023-05-12T10:13:07.926Z,100511.94
2023-05-12T10:16:10.744Z,100517.31
2023-05-12T10:19:13.706Z,100512.03
2023-05-12T10:22:17.838Z,100512.34
2023-05-12T10:25:20.455Z,100507.69
2023-05-12T10:28:23.255Z,100514.84
2023-05-12T10:31:25.910Z,100517.69
2023-05-12T10:34:30.186Z,100511.72
2023-05-12T10:37:34.565Z,100519.09
2023-05-12T10:40:36.985Z,100515.88
2023-05-12T10:43:41.316Z,100526.13
2023-05-12T10:46:44.853Z,100528.13
2023-05-12T10:49:47.915Z,100524.53
2023-05-12T10:52:54.799Z,100523.19
2023-05-12T10:55:57.417Z,100528.06
2023-05-12T10:59:08.381Z,100524.75
2023-05-12T11:02:15.691Z,100524.41
2023-05-12T11:05:20.009Z,100518.91
2023-05-12T11:08:24.947Z,100523.19
2023-05-12T11:11:27.906Z,100523.28
2023-05-12T11:14:30.300Z,100516.66
2023-05-12T11:17:33.221Z,100513.06
2023-05-12T11:20:35.910Z,100522.63
2023-05-12T11:23:39.973Z,100522.25
2023-05-12T11:26:42.477Z,100524.19
2023-05-12T11:29:47.135Z,100525.84
2023-05-12T11:33:00.178Z,100517.34
2023-05-12T11:36:05.011Z,100510.22
2023-05-12T11:39:15.653Z,100512.63
2023-05-12T11:42:20.243Z,100512.63
2023-05-12T11:45:24.988Z,100514.00
2023-05-12T11:48:33.492Z,100518.25
2023-05-12T11:51:36.035Z,100518.59
2023-05-12T11:54:40.032Z,100522.44
2023-05-12T11:57:42.572Z,100518.84
2023-05-12T12:00:45.810Z,100516.88
2023-05-12T12:03:49.296Z,100528.41
2023-05-12T12:06:52.062Z,100526.44
2023-05-12T12:09:56.166Z,100527.66
2023-05-12T12:13:00.241Z,100531.91
2023-05-12T12:16:03.183Z,100532.91
2023-05-12T12:19:07.023Z,100528.53
2023-05-12T12:22:09.763Z,100533.94
2023-05-12T12:25:13.659Z,100535.56
2023-05-12T12:28:16.300Z,100537.03
2023-05-12T12:31:18.904Z,100536.81
2023-05-12T12:34:21.685Z,100542.00
2023-05-12T12:37:24.175Z,100538.19
2023-05-12T12:40:28.308Z,100534.91
2023-05-12T12:43:31.154Z,100539.72
2023-05-12T12:46:34.001Z,100537.38
2023-05-12T12:49:36.569Z,100537.31
2023-05-12T12:52:39.350Z,100538.19
2023-05-12T12:55:43.145Z,100541.53
2023-05-12T12:58:45.951Z,100537.84
2023-05-12T13:01:48.552Z,100543.03
2023-05-12T13:04:51.339Z,100537.97
2023-05-12T13:07:53.912Z,100537.75
2023-05-12T13:10:58.135Z,100536.59
2023-05-12T13:14:02.460Z,100531.31
2023-05-12T13:17:05.719Z,100530.38
2023-05-12T13:20:09.674Z,100531.38
2023-05-12T13:23:12.462Z,100536.31
2023-05-12T13:26:16.197Z,100533.50
2023-05-12T13:29:19.242Z,100538.22
2023-05-12T13:32:22.390Z,100525.00
2023-05-12T13:35:25.235Z,100539.59
2023-05-12T13:38:27.743Z,100536.81
2023-05-12T13:41:31.778Z,100534.06
2023-05-12T13:44:34.230Z,100539.28
2023-05-12T13:47:37.690Z,100540.97
2023-05-12T13:50:40.155Z,100540.97
2023-05-12T13:53:43.077Z,100537.53
2023-05-12T13:56:50.590Z,100557.28
2023-05-12T13:59:54.918Z,100553.00
2023-05-12T14:02:57.822Z,100549.69
2023-05-12T14:06:00.722Z,100552.00
2023-05-12T14:09:05.952Z,100557.38
2023-05-12T14:12:10.846Z,100554.97
2023-05-12T14:15:26.624Z,100563.09
2023-05-12T14:18:32.402Z,100574.22
2023-05-12T14:21:34.850Z,100571.72
2023-05-12T14:24:37.656Z,100581.38
2023-05-12T14:27:41.461Z,100578.34
2023-05-12T14:30:45.209Z,100588.56
2023-05-12T14:33:47.854Z,100591.94
2023-05-12T14:36:50.501Z,100586.13
2023-05-12T14:39:55.134Z,100594.22
2023-05-12T14:42:59.970Z,100587.16
2023-05-12T14:46:02.542Z,100596.91
2023-05-12T14:49:10.584Z,100593.37
2023-05-12T14:52:13.086Z,100599.50
2023-05-12T14:55:17.268Z,100594.22
2023-05-12T14:58:21.948Z,100600.84
2023-05-12T15:01:24.718Z,100603.63
2023-05-12T15:04:27.569Z,100599.41
2023-05-12T15:07:30.313Z,100605.00
2023-05-12T15:10:32.808Z,100610.78
2023-05-12T15:13:36.955Z,100609.75
2023-05-12T15:16:39.514Z,100613.97
2023-05-12T15:19:42.348Z,100612.47
2023-05-12T15:22:44.789Z,100612.53
2023-05-12T15:25:47.641Z,100613.66
2023-05-12T15:28:51.433Z,100614.62
2023-05-12T15:31:54.892Z,100614.38
2023-05-12T15:34:58.514Z,100621.22
2023-05-12T15:38:01.038Z,100614.31
2023-05-12T15:41:03.738Z,100615.94
